Time;durP1;ratioP1;P1;durP2;ratioP2;P2;SDS_P1;SDS_P2;PMS_P1;PMS_P2;Temp;Humidity;BMP_temperature;BMP_pressure;BME280_temperature;BME280_humidity;BME280_pressure;Samples;Min_cycle;Max_cycle;Signal;HPM_P1;HPM_P2
2023/02/11 00:01:06;;;;;;;8.23;4.70;;;;;;;9.55;100.00;102265.81;2086158;28;20503;-83
2023/02/11 00:02:31;;;;;;;6.95;4.03;;;;;;;9.58;100.00;102273.88;2086871;28;20100;-81
2023/02/11 00:03:53;;;;;;;7.90;4.10;;;;;;;9.60;100.00;102278.34;2087340;28;20053;-81
2023/02/11 00:05:15;;;;;;;8.27;4.75;;;;;;;9.61;100.00;102273.97;2087223;28;20424;-82
2023/02/11 00:06:38;;;;;;;7.28;4.68;;;;;;;9.62;100.00;102269.63;2085722;28;20045;-82
2023/02/11 00:08:00;;;;;;;7.88;4.25;;;;;;;9.63;100.00;102274.97;2080993;28;20057;-80
2023/02/11 00:09:22;;;;;;;7.38;4.57;;;;;;;9.63;100.00;102274.97;2078901;28;20060;-82
2023/02/11 00:10:45;;;;;;;7.40;4.28;;;;;;;9.63;100.00;102272.31;2078378;28;20046;-82
2023/02/11 00:12:07;;;;;;;7.57;4.40;;;;;;;9.65;100.00;102269.75;2078935;28;20639;-81
2023/02/11 00:13:29;;;;;;;7.55;4.45;;;;;;;9.64;100.00;102265.31;2079068;28;20068;-82
2023/02/11 00:14:51;;;;;;;7.13;4.55;;;;;;;9.65;100.00;102262.72;2078399;28;20481;-81
2023/02/11 00:16:16;;;;;;;8.98;5.57;;;;;;;9.68;100.00;102264.59;2078888;28;20053;-82
2023/02/11 00:17:37;;;;;;;6.88;4.30;;;;;;;9.67;100.00;102265.44;2084946;28;20044;-82
2023/02/11 00:19:00;;;;;;;7.35;4.63;;;;;;;9.63;100.00;102258.25;2093914;28;20056;-81
2023/02/11 00:20:22;;;;;;;7.95;5.22;;;;;;;9.59;100.00;102259.81;2081669;28;20038;-82
2023/02/11 00:21:48;;;;;;;7.65;4.63;;;;;;;9.54;100.00;102256.09;2081460;28;20481;-81
2023/02/11 00:23:10;;;;;;;7.43;4.40;;;;;;;9.50;100.00;102265.63;2087198;28;20049;-82
2023/02/11 00:24:33;;;;;;;8.45;4.85;;;;;;;9.47;100.00;102264.56;2081381;28;20381;-81
2023/02/11 00:25:55;;;;;;;7.28;4.43;;;;;;;9.45;100.00;102256.56;2086906;28;20049;-81
2023/02/11 00:27:16;;;;;;;8.25;4.60;;;;;;;9.46;100.00;102258.38;2081117;28;20056;-81
2023/02/11 00:28:38;;;;;;;6.85;4.20;;;;;;;9.44;100.00;102257.44;2085651;28;20080;-81
2023/02/11 00:30:04;;;;;;;7.72;4.60;;;;;;;9.46;100.00;102255.75;2079296;28;20091;-81
2023/02/11 00:31:26;;;;;;;9.13;4.88;;;;;;;9.47;100.00;102262.84;2075357;28;20100;-82
2023/02/11 00:32:49;;;;;;;7.97;4.60;;;;;;;9.49;100.00;102253.25;2075977;28;20049;-80
2023/02/11 00:34:11;;;;;;;7.93;5.07;;;;;;;9.50;100.00;102257.72;2090035;28;20056;-82
2023/02/11 00:35:35;;;;;;;8.43;4.75;;;;;;;9.52;100.00;102256.03;2087763;28;20056;-82
2023/02/11 00:36:59;;;;;;;6.65;4.32;;;;;;;9.54;100.00;102262.28;2072959;28;20046;-82
2023/02/11 00:38:20;;;;;;;7.55;4.53;;;;;;;9.55;100.00;102255.25;2093060;28;20040;-82
2023/02/11 00:39:42;;;;;;;8.70;4.47;;;;;;;9.58;100.00;102255.41;2092121;28;20044;-82
2023/02/11 00:41:04;;;;;;;8.88;4.72;;;;;;;9.59;100.00;102254.56;2097991;28;20059;-81
2023/02/11 00:42:26;;;;;;;6.95;4.60;;;;;;;9.61;100.00;102258.16;2083861;28;20053;-82
2023/02/11 00:43:49;;;;;;;7.50;4.65;;;;;;;9.62;100.00;102259.06;2078281;28;20115;-81
2023/02/11 00:45:14;;;;;;;9.38;4.13;;;;;;;9.60;100.00;102261.63;2098550;28;20075;-82
2023/02/11 00:46:36;;;;;;;6.78;4.32;;;;;;;9.62;100.00;102253.78;2090948;28;20091;-80
2023/02/11 00:47:57;;;;;;;8.10;5.07;;;;;;;9.64;100.00;102262.69;2103298;28;20105;-81
2023/02/11 00:49:20;;;;;;;6.70;4.68;;;;;;;9.64;100.00;102255.69;2092161;28;20449;-82
2023/02/11 00:50:42;;;;;;;7.07;4.75;;;;;;;9.66;100.00;102261.00;2078052;28;20099;-81
2023/02/11 00:52:06;;;;;;;10.63;5.07;;;;;;;9.67;100.00;102258.44;2100397;28;20080;-82
2023/02/11 00:53:30;;;;;;;6.00;3.80;;;;;;;9.67;100.00;102252.25;2083415;28;20048;-81
2023/02/11 00:54:52;;;;;;;5.93;3.67;;;;;;;9.69;100.00;102248.84;2086330;28;20056;-81
2023/02/11 00:56:14;;;;;;;7.20;4.15;;;;;;;9.69;100.00;102250.59;2081079;28;20037;-81
2023/02/11 00:57:36;;;;;;;7.32;4.55;;;;;;;9.68;100.00;102249.69;2080139;28;20579;-81
2023/02/11 00:58:59;;;;;;;6.35;4.28;;;;;;;9.68;100.00;102243.50;2083810;28;20049;-81
2023/02/11 01:00:21;;;;;;;9.00;4.60;;;;;;;9.70;100.00;102241.84;2080966;28;20045;-81
2023/02/11 01:01:44;;;;;;;7.20;4.32;;;;;;;9.70;100.00;102245.41;2075786;28;20048;-81
2023/02/11 01:03:10;;;;;;;9.18;4.45;;;;;;;9.68;100.00;102240.88;2078002;28;20141;-81
2023/02/11 01:04:33;;;;;;;9.38;5.25;;;;;;;9.65;100.00;102240.75;2094809;28;20041;-82
2023/02/11 01:05:56;;;;;;;8.55;4.93;;;;;;;9.64;100.00;102237.22;2075333;28;20045;-82
2023/02/11 01:07:20;;;;;;;8.68;5.80;;;;;;;9.64;100.00;102241.59;2090942;28;20039;-81
2023/02/11 01:08:46;;;;;;;7.25;5.40;;;;;;;9.64;100.00;102246.88;2089100;28;20049;-82
2023/02/11 01:10:08;;;;;;;7.03;4.43;;;;;;;9.63;100.00;102238.06;2081125;28;20060;-81
2023/02/11 01:11:30;;;;;;;7.53;4.60;;;;;;;9.65;100.00;102238.13;2091888;28;20522;-82
2023/02/11 01:12:52;;;;;;;9.18;5.78;;;;;;;9.65;100.00;102239.00;2097209;28;20044;-82
2023/02/11 01:14:15;;;;;;;10.93;7.10;;;;;;;9.67;100.00;102237.34;2080204;28;20060;-81
2023/02/11 01:15:36;;;;;;;10.27;6.72;;;;;;;9.70;100.00;102231.31;2083655;28;20041;-81
2023/02/11 01:16:59;;;;;;;9.13;5.68;;;;;;;9.72;100.00;102232.25;2102992;28;20120;-81
2023/02/11 01:18:20;;;;;;;12.13;7.40;;;;;;;9.74;100.00;102228.84;2091755;28;20149;-82
2023/02/11 01:19:44;;;;;;;8.55;5.55;;;;;;;9.78;100.00;102240.44;2102606;28;20071;-81
2023/02/11 01:21:06;;;;;;;9.70;5.43;;;;;;;9.78;100.00;102233.41;2083386;28;20749;-81
2023/02/11 01:22:30;;;;;;;9.38;5.38;;;;;;;9.79;100.00;102234.31;2083284;28;20052;-82
2023/02/11 01:23:52;;;;;;;11.70;7.28;;;;;;;9.80;100.00;102231.75;2084660;28;20048;-81
2023/02/11 01:25:14;;;;;;;8.18;4.95;;;;;;;9.81;100.00;102233.56;2094368;28;20280;-81
2023/02/11 01:26:36;;;;;;;11.52;6.47;;;;;;;9.81;100.00;102230.91;2080999;28;20063;-80
2023/02/11 01:27:57;;;;;;;9.55;6.00;;;;;;;9.82;100.00;102226.53;2100411;28;20090;-81
2023/02/11 01:29:20;;;;;;;7.90;4.80;;;;;;;9.82;100.00;102234.47;2092025;28;20144;-81
2023/02/11 01:30:41;;;;;;;8.25;5.13;;;;;;;9.81;100.00;102237.94;2080802;28;20057;-81
2023/02/11 01:32:03;;;;;;;8.65;5.07;;;;;;;9.80;100.00;102233.47;2083002;28;20063;-81
2023/02/11 01:33:24;;;;;;;8.52;5.30;;;;;;;9.81;100.00;102237.94;2086453;28;20105;-81
2023/02/11 01:34:47;;;;;;;7.30;4.22;;;;;;;9.80;100.00;102241.41;2102890;28;20117;-81
2023/02/11 01:36:11;;;;;;;8.52;5.03;;;;;;;9.81;100.00;102237.94;2091354;28;20056;-81
2023/02/11 01:37:35;;;;;;;8.75;4.70;;;;;;;9.81;100.00;102237.94;2101084;28;20488;-81
2023/02/11 01:38:56;;;;;;;7.00;4.45;;;;;;;9.79;100.00;102227.31;2091510;28;20060;-81
2023/02/11 01:40:19;;;;;;;7.25;4.13;;;;;;;9.79;100.00;102229.94;2077780;28;20151;-81
2023/02/11 01:41:41;;;;;;;8.60;6.82;;;;;;;9.79;100.00;102227.31;2075501;28;20060;-81
2023/02/11 01:43:02;;;;;;;13.90;9.13;;;;;;;9.81;100.00;102227.38;2100215;28;20039;-81
2023/02/11 01:44:27;;;;;;;10.88;7.40;;;;;;;9.80;100.00;102223.84;2091615;28;20137;-81
2023/02/11 01:46:03;;;;;;;7.85;5.35;;;;;;;9.79;100.00;102224.66;2086751;28;20067;-81
2023/02/11 01:47:25;;;;;;;9.90;5.43;;;;;;;9.79;100.00;102229.94;2088784;28;20094;-81
2023/02/11 01:48:53;;;;;;;6.60;4.63;;;;;;;9.79;100.00;102223.75;2080341;28;20046;-81
2023/02/11 01:50:15;;;;;;;8.82;5.40;;;;;;;9.76;100.00;102228.94;2087345;28;20505;-81
2023/02/11 01:51:42;;;;;;;7.15;4.63;;;;;;;9.76;100.00;102223.66;2080724;28;20076;-81
2023/02/11 01:58:07;;;;;;;34.63;18.05;;;;;;;9.62;100.00;102224.78;2088764;28;20052;-80
2023/02/11 01:59:33;;;;;;;20.25;9.07;;;;;;;9.60;100.00;102219.44;2078564;28;20049;-80
2023/02/11 02:00:57;;;;;;;219.10;86.80;;;;;;;9.58;100.00;102222.00;2075872;28;20049;-80
2023/02/11 02:02:24;;;;;;;98.05;41.10;;;;;;;9.56;100.00;102225.44;2083295;28;20060;-80
2023/02/11 02:03:49;;;;;;;106.65;44.78;;;;;;;9.52;100.00;102221.75;2086643;28;20041;-81
2023/02/11 02:05:23;;;;;;;107.50;47.95;;;;;;;9.48;100.00;102219.81;2078207;28;20064;-81
2023/02/11 02:06:55;;;;;;;56.35;24.80;;;;;;;9.45;100.00;102218.81;2079057;28;20590;-81
2023/02/11 02:08:28;;;;;;;207.18;96.72;;;;;;;9.39;100.00;102213.25;2077816;28;20049;-81
2023/02/11 02:09:58;;;;;;;53.05;26.98;;;;;;;9.34;100.00;102225.31;2084963;28;20049;-80
2023/02/11 02:11:22;;;;;;;128.32;62.85;;;;;;;9.29;100.00;102211.97;2095305;28;20071;-80
2023/02/11 02:12:44;;;;;;;147.20;73.72;;;;;;;9.26;100.00;102209.16;2082536;28;20075;-81
2023/02/11 02:14:07;;;;;;;92.65;47.15;;;;;;;9.26;100.00;102211.81;2077569;28;20117;-81
2023/02/11 02:15:33;;;;;;;69.70;37.47;;;;;;;9.28;100.00;102211.88;2069834;28;20054;-81
2023/02/11 02:16:57;;;;;;;52.15;28.10;;;;;;;9.27;100.00;102212.72;2093217;28;20055;-80
2023/02/11 02:18:36;;;;;;;36.10;18.67;;;;;;;9.28;100.00;102206.59;2090910;28;20052;-81
2023/02/11 02:20:37;;;;;;;28.83;16.25;;;;;;;9.24;100.00;102207.31;2080221;28;20548;-80
2023/02/11 02:22:46;;;;;;;69.97;40.88;;;;;;;9.20;100.00;102201.00;2080175;28;20064;-80
2023/02/11 02:24:56;;;;;;;68.97;43.08;;;;;;;9.17;100.00;102204.41;2088245;28;20540;-81
2023/02/11 02:26:46;;;;;;;51.30;32.00;;;;;;;9.14;100.00;102193.72;2080410;28;20037;-81
2023/02/11 02:28:29;;;;;;;52.58;38.00;;;;;;;9.14;100.00;102192.81;2079979;28;20505;-80
2023/02/11 02:30:16;;;;;;;34.17;27.63;;;;;;;9.14;100.00;102191.09;2088422;28;20489;-81
2023/02/11 02:31:53;;;;;;;21.35;17.15;;;;;;;9.19;100.00;102189.56;2105474;28;20078;-80
2023/02/11 02:33:33;;;;;;;18.02;15.13;;;;;;;9.22;100.00;102187.91;2088952;28;20083;-81
2023/02/11 02:35:01;;;;;;;12.10;9.82;;;;;;;9.24;100.00;102192.41;2104533;28;20052;-80
2023/02/11 02:36:32;;;;;;;12.70;10.35;;;;;;;9.27;100.00;102186.34;2090281;28;20559;-81
2023/02/11 02:38:00;;;;;;;10.60;7.78;;;;;;;9.33;100.00;102186.63;2095350;28;20417;-80
2023/02/11 02:39:33;;;;;;;12.00;8.25;;;;;;;9.38;100.00;102186.03;2088650;28;20043;-80
2023/02/11 02:41:01;;;;;;;11.18;7.95;;;;;;;9.41;100.00;102183.50;2086488;28;20057;-80
2023/02/11 02:42:25;;;;;;;8.50;5.72;;;;;;;9.46;100.00;102183.69;2102938;28;20086;-80
2023/02/11 02:43:48;;;;;;;8.27;5.38;;;;;;;9.51;100.00;102177.81;2090909;28;20045;-81
2023/02/11 02:45:12;;;;;;;7.80;4.97;;;;;;;9.57;100.00;102178.06;2094321;28;20110;-81
2023/02/11 02:46:34;;;;;;;11.02;5.82;;;;;;;9.64;100.00;102181.84;2082704;28;20049;-80
2023/02/11 02:47:56;;;;;;;11.13;5.75;;;;;;;9.70;100.00;102171.56;2078108;28;20481;-81
2023/02/11 02:49:20;;;;;;;8.45;5.85;;;;;;;9.76;100.00;102173.56;2094046;28;20137;-81
2023/02/11 02:50:42;;;;;;;11.68;6.85;;;;;;;9.86;100.00;102173.06;2082842;28;20449;-81
2023/02/11 02:52:25;;;;;;;11.77;6.18;;;;;;;9.92;100.00;102174.22;2088782;28;20051;-79
2023/02/11 02:53:59;;;;;;;9.20;6.05;;;;;;;10.02;100.00;102177.25;2088376;28;20045;-81
2023/02/11 02:55:34;;;;;;;8.38;5.68;;;;;;;10.08;100.00;102170.47;2079939;28;20554;-80
2023/02/11 02:57:04;;;;;;;10.07;6.57;;;;;;;10.16;100.00;102176.06;2088182;28;20041;-81
2023/02/11 02:59:17;;;;;;;10.60;5.72;;;;;;;10.22;100.00;102153.50;2080462;28;20123;-81
2023/02/11 03:00:46;;;;;;;9.70;5.72;;;;;;;10.27;100.00;102174.78;2060675;28;20522;-81
2023/02/11 03:02:15;;;;;;;12.38;5.35;;;;;;;10.30;100.00;102175.81;2071291;28;20050;-81
2023/02/11 03:03:48;;;;;;;11.50;5.30;;;;;;;10.35;100.00;102183.91;2086158;28;20111;-82
2023/02/11 03:05:18;;;;;;;9.25;5.35;;;;;;;10.40;100.00;102174.44;2087148;28;20064;-80
2023/02/11 03:06:47;;;;;;;10.85;5.50;;;;;;;10.43;100.00;102176.28;2094335;28;20146;-80
2023/02/11 03:08:17;;;;;;;9.10;5.05;;;;;;;10.44;100.00;102175.44;2088215;28;20279;-81
2023/02/11 03:09:45;;;;;;;10.20;5.65;;;;;;;10.44;100.00;102186.88;2086854;28;20059;-80
2023/02/11 03:11:10;;;;;;;9.57;5.38;;;;;;;10.43;100.00;102182.47;2079861;28;20433;-81
2023/02/11 03:12:35;;;;;;;9.85;4.97;;;;;;;10.46;100.00;102184.31;2083462;28;20144;-80
2023/02/11 03:13:59;;;;;;;11.45;6.50;;;;;;;10.48;100.00;102172.09;2104146;28;20052;-81
2023/02/11 03:15:23;;;;;;;9.43;5.38;;;;;;;10.50;100.00;102183.63;2084387;28;20584;-81
2023/02/11 03:16:49;;;;;;;8.07;5.35;;;;;;;10.51;100.00;102175.72;2086428;28;20472;-80
2023/02/11 03:18:16;;;;;;;10.43;5.65;;;;;;;10.53;100.00;102181.97;2087553;28;20049;-81
2023/02/11 03:19:41;;;;;;;11.23;6.63;;;;;;;10.55;100.00;102177.66;2079464;28;20468;-81
2023/02/11 03:21:06;;;;;;;12.48;6.45;;;;;;;10.57;100.00;102180.34;2087486;28;20045;-81
2023/02/11 03:22:35;;;;;;;10.70;6.90;;;;;;;10.62;100.00;102173.50;2080564;28;20493;-80
2023/02/11 03:23:59;;;;;;;11.15;6.18;;;;;;;10.66;100.00;102178.06;2103103;28;20062;-81
2023/02/11 03:25:28;;;;;;;9.15;5.70;;;;;;;10.71;100.00;102181.78;2092136;28;20051;-81
2023/02/11 03:26:52;;;;;;;11.98;5.85;;;;;;;10.73;100.00;102177.44;2087118;28;20052;-80
2023/02/11 03:28:24;;;;;;;10.23;6.13;;;;;;;10.73;100.00;102188.03;2079443;28;20045;-80
2023/02/11 03:29:53;;;;;;;11.27;5.72;;;;;;;10.71;100.00;102182.66;2095011;28;20045;-81
2023/02/11 03:31:20;;;;;;;10.18;5.38;;;;;;;10.70;100.00;102185.25;2089429;28;20587;-81
2023/02/11 03:32:50;;;;;;;8.80;5.32;;;;;;;10.68;100.00;102179.03;2104540;28;20443;-80
2023/02/11 03:34:18;;;;;;;8.52;5.32;;;;;;;10.70;100.00;102166.75;2091673;28;20079;-81
2023/02/11 03:35:47;;;;;;;7.22;4.70;;;;;;;10.71;100.00;102174.75;2096321;28;20052;-81
2023/02/11 03:37:16;;;;;;;9.13;5.68;;;;;;;10.70;100.00;102172.94;2089509;28;20057;-80
2023/02/11 03:38:43;;;;;;;11.13;6.18;;;;;;;10.70;100.00;102172.94;2088829;28;20037;-81
2023/02/11 03:40:10;;;;;;;10.52;5.85;;;;;;;10.68;100.00;102174.66;2080890;28;20551;-80
2023/02/11 03:41:35;;;;;;;12.27;6.07;;;;;;;10.68;100.00;102171.09;2085487;28;20083;-81
2023/02/11 03:43:00;;;;;;;8.85;5.32;;;;;;;10.72;100.00;102171.28;2086143;28;20100;-80
2023/02/11 03:44:26;;;;;;;10.18;5.90;;;;;;;10.76;100.00;102170.53;2087606;28;20049;-81
2023/02/11 03:45:53;;;;;;;14.07;6.00;;;;;;;10.77;100.00;102176.72;2087582;28;20056;-80
2023/02/11 03:47:20;;;;;;;9.98;5.53;;;;;;;10.79;100.00;102170.66;2079220;28;20045;-81
2023/02/11 03:48:44;;;;;;;10.20;5.20;;;;;;;10.82;100.00;102177.81;2097133;28;20059;-81
2023/02/11 03:50:10;;;;;;;8.48;4.90;;;;;;;10.83;100.00;102181.34;2091954;28;20091;-81
2023/02/11 03:51:33;;;;;;;10.05;5.25;;;;;;;10.83;100.00;102176.06;2081500;28;20049;-81
2023/02/11 03:52:58;;;;;;;8.27;5.13;;;;;;;10.83;100.00;102165.50;2102952;28;20040;-81
2023/02/11 03:54:25;;;;;;;9.73;5.30;;;;;;;10.82;100.00;102176.91;2091898;28;20442;-81
2023/02/11 03:55:49;;;;;;;10.73;5.95;;;;;;;10.84;100.00;102175.19;2087544;28;20041;-81
2023/02/11 03:57:10;;;;;;;12.00;5.70;;;;;;;10.87;100.00;102173.59;2085997;28;20136;-80
2023/02/11 03:58:33;;;;;;;12.63;6.85;;;;;;;10.88;100.00;102169.22;2086691;28;20041;-80
2023/02/11 03:59:56;;;;;;;9.98;5.70;;;;;;;10.88;100.00;102166.56;2088123;28;20103;-80
2023/02/11 04:01:18;;;;;;;9.65;5.95;;;;;;;10.89;100.00;102166.63;2095146;28;20514;-81
2023/02/11 04:02:42;;;;;;;8.68;5.03;;;;;;;10.90;100.00;102170.13;2086324;28;20048;-81
2023/02/11 04:04:05;;;;;;;9.55;4.65;;;;;;;10.90;100.00;102160.47;2086432;28;20114;-81
2023/02/11 04:05:26;;;;;;;11.23;4.63;;;;;;;10.90;100.00;102167.50;2078714;28;20083;-80
2023/02/11 04:06:48;;;;;;;9.77;5.43;;;;;;;10.89;100.00;102158.72;2084580;28;20048;-80
2023/02/11 04:08:12;;;;;;;8.98;5.55;;;;;;;10.89;100.00;102165.72;2078075;28;20045;-80
2023/02/11 04:09:34;;;;;;;9.60;4.97;;;;;;;10.89;100.00;102177.19;2084530;28;20071;-79
2023/02/11 04:10:57;;;;;;;12.30;5.53;;;;;;;10.89;100.00;102165.72;2085770;28;20083;-80
2023/02/11 04:12:21;;;;;;;13.95;5.57;;;;;;;10.90;100.00;102171.03;2086028;28;20048;-79
2023/02/11 04:13:45;;;;;;;8.38;5.20;;;;;;;10.90;100.00;102164.84;2079051;28;20127;-80
2023/02/11 04:15:09;;;;;;;9.75;5.22;;;;;;;10.91;100.00;102166.66;2094756;28;20052;-81
2023/02/11 04:16:33;;;;;;;8.63;5.30;;;;;;;10.91;100.00;102170.19;2075613;28;20076;-81
2023/02/11 04:18:00;;;;;;;8.93;5.00;;;;;;;10.91;100.00;102167.56;2083014;28;20145;-81
2023/02/11 04:19:23;;;;;;;12.77;5.55;;;;;;;10.91;100.00;102169.31;2087174;28;20055;-81
2023/02/11 04:20:50;;;;;;;8.82;4.72;;;;;;;10.89;100.00;102169.28;2084992;28;20047;-81
2023/02/11 04:22:12;;;;;;;9.18;5.20;;;;;;;10.88;100.00;102167.47;2086526;28;20064;-81
2023/02/11 04:23:38;;;;;;;10.30;5.38;;;;;;;10.86;100.00;102163.88;2086085;28;20062;-82
2023/02/11 04:25:02;;;;;;;9.27;5.47;;;;;;;10.83;100.00;102174.31;2086788;28;20052;-81
2023/02/11 04:26:25;;;;;;;8.80;4.90;;;;;;;10.81;100.00;102160.16;2078893;28;20068;-80
2023/02/11 04:27:47;;;;;;;8.25;4.97;;;;;;;10.79;100.00;102162.72;2086375;28;20068;-81
2023/02/11 04:29:08;;;;;;;10.43;5.18;;;;;;;10.79;100.00;102172.41;2085063;28;20052;-81
2023/02/11 04:30:30;;;;;;;9.00;5.22;;;;;;;10.78;100.00;102168.84;2084046;28;20057;-81
2023/02/11 04:31:53;;;;;;;8.80;4.95;;;;;;;10.77;100.00;102169.69;2086736;28;20112;-81
2023/02/11 04:33:14;;;;;;;9.75;5.82;;;;;;;10.78;100.00;102170.59;2077798;28;20049;-80
2023/02/11 04:34:36;;;;;;;10.40;5.13;;;;;;;10.76;100.00;102167.03;2086522;28;20136;-81
2023/02/11 04:35:57;;;;;;;10.48;5.75;;;;;;;10.73;100.00;102166.88;2085663;28;20048;-81
2023/02/11 04:37:20;;;;;;;9.57;5.32;;;;;;;10.72;100.00;102166.00;2094620;28;20060;-81
2023/02/11 04:38:44;;;;;;;10.55;6.72;;;;;;;10.73;100.00;102172.16;2089511;28;20053;-81
2023/02/11 04:40:06;;;;;;;28.55;10.30;;;;;;;10.70;100.00;102172.94;2086126;28;20087;-80
2023/02/11 04:41:28;;;;;;;69.93;22.38;;;;;;;10.68;100.00;102173.75;2086442;28;20045;-80
2023/02/11 04:42:50;;;;;;;54.70;16.65;;;;;;;10.68;100.00;102182.56;2086116;28;20549;-80
2023/02/11 04:44:14;;;;;;;44.25;15.63;;;;;;;10.67;100.00;102170.19;2093376;28;20083;-80
2023/02/11 04:45:37;;;;;;;15.85;7.63;;;;;;;10.67;100.00;102182.50;2097526;28;20695;-80
2023/02/11 04:46:58;;;;;;;12.93;6.65;;;;;;;10.64;100.00;102171.81;2082635;28;20049;-80
2023/02/11 04:48:20;;;;;;;14.20;7.43;;;;;;;10.62;100.00;102173.50;2083985;28;20049;-81
2023/02/11 04:49:43;;;;;;;9.90;6.32;;;;;;;10.59;100.00;102176.94;2088104;28;20053;-80
2023/02/11 04:51:05;;;;;;;9.35;6.15;;;;;;;10.57;100.00;102172.41;2085612;28;20051;-80
2023/02/11 04:52:27;;;;;;;10.82;6.70;;;;;;;10.59;100.00;102173.38;2086357;28;20052;-80
2023/02/11 04:53:50;;;;;;;10.30;5.97;;;;;;;10.61;100.00;102177.00;2086364;28;20052;-79
2023/02/11 04:55:13;;;;;;;9.98;5.50;;;;;;;10.65;100.00;102179.78;2085067;28;20170;-80
2023/02/11 04:56:34;;;;;;;8.73;5.22;;;;;;;10.67;100.00;102180.78;2089335;28;20071;-80
2023/02/11 04:57:57;;;;;;;8.45;5.30;;;;;;;10.70;100.00;102175.59;2094686;28;20049;-80
2023/02/11 04:59:18;;;;;;;9.73;5.72;;;;;;;10.72;100.00;102179.19;2089108;28;20045;-81
2023/02/11 05:00:40;;;;;;;8.98;5.15;;;;;;;10.74;100.00;102174.88;2082956;28;20489;-80
2023/02/11 05:02:02;;;;;;;9.30;5.13;;;;;;;10.76;100.00;102172.31;2103124;28;20047;-81
2023/02/11 05:03:25;;;;;;;11.00;5.55;;;;;;;10.77;100.00;102177.63;2091240;28;20094;-80
2023/02/11 05:04:46;;;;;;;10.18;6.85;;;;;;;10.78;100.00;102170.59;2086236;28;20041;-81
2023/02/11 05:06:10;;;;;;;12.70;5.90;;;;;;;10.79;100.00;102188.25;2078472;28;20522;-80
2023/02/11 05:07:33;;;;;;;8.38;5.20;;;;;;;10.80;100.00;102179.47;2099459;28;20040;-81
2023/02/11 05:08:56;;;;;;;11.30;5.55;;;;;;;10.82;100.00;102169.88;2091048;28;20048;-79
2023/02/11 05:10:18;;;;;;;9.32;5.10;;;;;;;10.79;100.00;102168.03;2085169;28;20049;-81
2023/02/11 05:11:41;;;;;;;7.60;4.75;;;;;;;10.80;100.00;102161.00;2088986;28;20072;-81
2023/02/11 05:13:02;;;;;;;10.50;5.57;;;;;;;10.81;100.00;102169.81;2086313;28;20056;-81
2023/02/11 05:14:25;;;;;;;7.45;4.63;;;;;;;10.79;100.00;102175.94;2089322;28;20045;-81
2023/02/11 05:15:46;;;;;;;10.93;4.97;;;;;;;10.78;100.00;102170.59;2103138;28;20082;-80
2023/02/11 05:17:08;;;;;;;10.85;5.25;;;;;;;10.78;100.00;102173.22;2091553;28;20053;-81
2023/02/11 05:18:29;;;;;;;10.75;4.90;;;;;;;10.75;100.00;102167.84;2104495;28;20101;-81
2023/02/11 05:19:52;;;;;;;10.13;5.30;;;;;;;10.73;100.00;102175.72;2091530;28;20091;-80
2023/02/11 05:21:16;;;;;;;12.23;4.68;;;;;;;10.73;100.00;102181.00;2087910;28;20045;-80
2023/02/11 05:22:38;;;;;;;10.02;5.40;;;;;;;10.75;100.00;102186.34;2085823;28;20048;-80
2023/02/11 05:24:01;;;;;;;11.15;5.70;;;;;;;10.75;100.00;102179.31;2076072;28;20084;-80
2023/02/11 05:25:23;;;;;;;10.18;6.15;;;;;;;10.75;100.00;102181.97;2083873;28;20057;-79
2023/02/11 05:26:45;;;;;;;9.50;6.20;;;;;;;10.75;100.00;102178.41;2089149;28;20090;-79
2023/02/11 05:28:06;;;;;;;7.82;5.15;;;;;;;10.76;100.00;102173.16;2086246;28;20059;-80
2023/02/11 05:29:29;;;;;;;11.30;6.68;;;;;;;10.75;100.00;102173.13;2086467;28;20045;-80
2023/02/11 05:30:50;;;;;;;9.38;5.10;;;;;;;10.76;100.00;102185.50;2101684;28;20063;-79
2023/02/11 05:32:12;;;;;;;9.18;5.68;;;;;;;10.76;100.00;102186.38;2083105;28;20107;-80
2023/02/11 05:33:34;;;;;;;10.57;6.25;;;;;;;10.78;100.00;102176.78;2086589;28;20053;-80
2023/02/11 05:34:56;;;;;;;9.88;5.95;;;;;;;10.78;100.00;102181.16;2088608;28;20107;-80
2023/02/11 05:36:18;;;;;;;10.70;6.07;;;;;;;10.76;100.00;102183.75;2086085;28;20041;-80
2023/02/11 05:37:39;;;;;;;11.82;7.60;;;;;;;10.78;100.00;102182.06;2085420;28;20045;-80
2023/02/11 05:39:03;;;;;;;12.23;6.97;;;;;;;10.81;100.00;102196.25;2088800;28;20049;-80
2023/02/11 05:40:25;;;;;;;10.70;5.78;;;;;;;10.82;100.00;102187.47;2086067;28;20033;-80
2023/02/11 05:41:48;;;;;;;9.75;5.85;;;;;;;10.84;100.00;102186.66;2083399;28;20167;-81
2023/02/11 05:43:10;;;;;;;10.90;6.32;;;;;;;10.88;100.00;102192.97;2086469;28;20037;-80
2023/02/11 05:44:32;;;;;;;12.07;6.45;;;;;;;10.91;100.00;102193.09;2088624;28;20106;-79
2023/02/11 05:45:53;;;;;;;11.15;7.63;;;;;;;10.94;100.00;102185.28;2085558;28;20478;-81
2023/02/11 05:47:16;;;;;;;9.20;4.80;;;;;;;10.96;100.00;102195.03;2077681;28;20069;-80
2023/02/11 05:48:37;;;;;;;9.18;5.07;;;;;;;10.99;100.00;102184.59;2082453;28;20064;-80
2023/02/11 05:49:59;;;;;;;11.48;5.18;;;;;;;11.01;100.00;102177.66;2078122;28;20057;-80
2023/02/11 05:51:20;;;;;;;9.48;5.22;;;;;;;11.06;100.00;102191.00;2083282;28;20044;-80
2023/02/11 05:52:43;;;;;;;10.10;5.47;;;;;;;11.07;100.00;102188.44;2077703;28;20052;-80
2023/02/11 05:54:06;;;;;;;9.35;4.95;;;;;;;11.09;100.00;102194.66;2089749;28;20044;-81
2023/02/11 05:55:28;;;;;;;9.73;5.10;;;;;;;11.11;100.00;102190.34;2088450;28;20056;-81
2023/02/11 05:56:50;;;;;;;8.52;5.40;;;;;;;11.13;100.00;102193.03;2084404;28;20602;-80
2023/02/11 05:58:12;;;;;;;9.65;5.35;;;;;;;11.16;100.00;102186.09;2085849;28;20467;-80
2023/02/11 05:59:34;;;;;;;10.55;4.78;;;;;;;11.18;100.00;102195.00;2092728;28;20477;-80
2023/02/11 06:00:55;;;;;;;9.80;4.55;;;;;;;11.21;100.00;102193.31;2086771;28;20053;-79
2023/02/11 06:02:18;;;;;;;9.90;5.07;;;;;;;11.22;100.00;102196.03;2085277;28;20949;-80
2023/02/11 06:03:40;;;;;;;9.55;4.65;;;;;;;11.25;100.00;102190.84;2077560;28;20119;-81
2023/02/11 06:05:01;;;;;;;10.60;5.07;;;;;;;11.27;100.00;102198.81;2088204;28;20057;-81
2023/02/11 06:06:25;;;;;;;10.68;5.35;;;;;;;11.28;100.00;102196.25;2086814;28;20187;-80
2023/02/11 06:07:46;;;;;;;11.85;7.00;;;;;;;11.32;100.00;102198.13;2094388;28;20547;-81
2023/02/11 06:09:11;;;;;;;11.73;7.10;;;;;;;11.35;100.00;102192.06;2090695;28;20049;-81
2023/02/11 06:10:33;;;;;;;10.45;5.80;;;;;;;11.36;100.00;102194.75;2086338;28;20076;-80
2023/02/11 06:11:54;;;;;;;8.30;5.05;;;;;;;11.39;100.00;102189.56;2086038;28;20559;-80
2023/02/11 06:13:18;;;;;;;10.90;6.00;;;;;;;11.42;100.00;102199.38;2086093;28;20135;-80
2023/02/11 06:14:43;;;;;;;11.82;5.82;;;;;;;11.45;100.00;102196.81;2101743;28;20052;-80
2023/02/11 06:16:05;;;;;;;12.05;6.85;;;;;;;11.50;100.00;102190.84;2090170;28;20033;-81
2023/02/11 06:17:30;;;;;;;10.40;5.22;;;;;;;11.54;100.00;102195.41;2094027;28;20401;-80
2023/02/11 06:18:52;;;;;;;53.15;27.35;;;;;;;11.57;100.00;102205.19;2087526;28;20041;-80
2023/02/11 06:20:14;;;;;;;23.70;14.13;;;;;;;11.58;100.00;102206.97;2085898;28;20045;-80
2023/02/11 06:21:36;;;;;;;16.33;12.48;;;;;;;11.59;100.00;102204.41;2085153;28;20072;-81
2023/02/11 06:22:58;;;;;;;9.05;5.72;;;;;;;11.61;100.00;102199.16;2088318;28;20409;-81
2023/02/11 06:24:21;;;;;;;9.95;5.50;;;;;;;11.64;100.00;102195.72;2092914;28;20181;-81
2023/02/11 06:25:42;;;;;;;10.88;4.78;;;;;;;11.67;100.00;102204.66;2088298;28;20063;-80
2023/02/11 06:27:05;;;;;;;8.45;5.38;;;;;;;11.69;100.00;102209.97;2084530;28;20041;-80
2023/02/11 06:28:30;;;;;;;6.85;4.05;;;;;;;11.73;100.00;102212.81;2080376;28;20037;-80
2023/02/11 06:29:52;;;;;;;8.25;5.07;;;;;;;11.75;100.00;102215.56;2082568;28;20053;-81
2023/02/11 06:31:15;;;;;;;10.68;6.50;;;;;;;11.78;100.00;102211.25;2085778;28;20049;-81
2023/02/11 06:32:36;;;;;;;8.13;5.28;;;;;;;11.78;100.00;102213.00;2087835;28;20053;-80
2023/02/11 06:33:58;;;;;;;10.73;5.72;;;;;;;11.76;100.00;102212.94;2079949;28;20057;-80
2023/02/11 06:35:20;;;;;;;8.30;5.28;;;;;;;11.76;99.91;102214.66;2102168;28;20094;-81